createdAt,value
2019-04-20T00:00:10.091Z,49.70
2019-04-20T00:00:52.616Z,49.27
2019-04-20T00:01:29.270Z,50.25
2019-04-20T00:02:07.396Z,50.45
2019-04-20T00:02:36.128Z,50.23
2019-04-20T00:03:09.663Z,50.35
2019-04-20T00:03:45.125Z,50.63
2019-04-20T00:04:23.438Z,50.05
2019-04-20T00:04:52.693Z,49.80
2019-04-20T00:05:25.593Z,51.00
2019-04-20T00:05:59.326Z,50.03
2019-04-20T00:06:43.147Z,50.90
2019-04-20T00:07:08.075Z,49.55
2019-04-20T00:07:41.854Z,50.75
2019-04-20T00:08:21.026Z,50.33
2019-04-20T00:08:58.109Z,51.05
2019-04-20T00:09:29.853Z,50.88
2019-04-20T00:10:06.285Z,50.90
2019-04-20T00:10:46.561Z,50.33
2019-04-20T00:11:17.274Z,50.52
2019-04-20T00:11:59.254Z,50.55
2019-04-20T00:12:34.413Z,50.05
2019-04-20T00:13:08.806Z,50.12
2019-04-20T00:13:43.769Z,50.50
2019-04-20T00:14:13.519Z,49.42
2019-04-20T00:14:42.397Z,49.40
2019-04-20T00:15:15.916Z,50.80
2019-04-20T00:15:49.272Z,51.60
2019-04-20T00:16:23.095Z,50.25
2019-04-20T00:17:05.263Z,50.30
2019-04-20T00:17:45.910Z,50.75
2019-04-20T00:18:15.171Z,50.38
2019-04-20T00:18:52.123Z,50.60
2019-04-20T00:19:32.243Z,51.10
2019-04-20T00:19:59.410Z,48.87
2019-04-20T00:20:37.511Z,50.73
2019-04-20T00:21:29.183Z,51.28
2019-04-20T00:22:11.982Z,49.95
2019-04-20T00:23:05.985Z,51.45
2019-04-20T00:23:47.714Z,50.10
2019-04-20T00:24:35.336Z,50.63
2019-04-20T00:25:24.086Z,49.88
2019-04-20T00:27:06.122Z,50.33
2019-04-20T00:27:32.376Z,50.55
2019-04-20T00:28:22.451Z,50.60
2019-04-20T00:28:55.981Z,50.30
2019-04-20T00:29:33.327Z,50.35
2019-04-20T00:30:04.319Z,49.98
2019-04-20T00:30:38.873Z,50.98
2019-04-20T00:31:13.772Z,50.48
2019-04-20T00:31:45.510Z,51.48
2019-04-20T00:36:29.049Z,51.42
2019-04-20T00:37:02.446Z,50.80
2019-04-20T00:37:35.992Z,50.55
2019-04-20T00:38:09.872Z,50.63
2019-04-20T00:38:50.060Z,50.48
2019-04-20T00:39:18.882Z,49.83
2019-04-20T00:39:53.073Z,50.85
2019-04-20T00:40:26.324Z,50.65
2019-04-20T00:41:05.230Z,51.28
2019-04-20T00:41:44.047Z,51.23
2019-04-20T00:42:11.658Z,51.60
2019-04-20T00:42:51.662Z,51.50
2019-04-20T00:43:25.794Z,51.92
2019-04-20T00:43:57.749Z,51.90
2019-04-20T00:44:34.092Z,51.10
2019-04-20T00:45:12.941Z,50.30
2019-04-20T00:45:46.748Z,50.83
2019-04-20T00:46:21.986Z,51.37
2019-04-20T00:47:02.028Z,51.65
2019-04-20T00:52:13.145Z,51.70
2019-04-20T00:52:35.327Z,53.10
2019-04-20T00:53:07.708Z,52.27
2019-04-20T00:53:38.112Z,51.75
2019-04-20T00:54:07.346Z,52.20
2019-04-20T00:54:41.219Z,52.15
2019-04-20T00:55:14.926Z,52.38
2019-04-20T00:55:48.564Z,51.83
2019-04-20T00:56:22.352Z,53.02
2019-04-20T00:57:07.899Z,52.17
2019-04-20T00:57:37.992Z,52.45
2019-04-20T00:58:11.833Z,52.08
2019-04-20T00:58:52.175Z,52.70
2019-04-20T00:59:29.700Z,52.58
2019-04-20T01:00:13.089Z,52.35
2019-04-20T01:00:40.727Z,52.65
2019-04-20T01:01:19.919Z,53.52
2019-04-20T01:01:52.167Z,52.23
2019-04-20T01:05:18.937Z,53.42
2019-04-20T01:06:18.794Z,52.35
2019-04-20T01:07:23.272Z,52.88
2019-04-20T01:08:06.947Z,52.78
2019-04-20T01:08:48.681Z,52.85
2019-04-20T01:09:45.439Z,54.03
2019-04-20T01:10:19.327Z,53.55
2019-04-20T01:10:54.823Z,53.20
2019-04-20T01:11:33.919Z,52.88
2019-04-20T01:12:11.840Z,54.15
2019-04-20T01:12:40.489Z,52.55
2019-04-20T01:13:18.389Z,52.88
2019-04-20T01:13:52.523Z,53.65
2019-04-20T01:14:37.946Z,52.53
2019-04-20T01:15:04.286Z,53.75
2019-04-20T01:15:46.245Z,53.23
2019-04-20T01:16:21.842Z,53.13
2019-04-20T01:16:52.570Z,53.75
2019-04-20T01:17:19.291Z,53.20
2019-04-20T01:17:52.467Z,53.52
2019-04-20T01:18:25.534Z,52.85
2019-04-20T01:18:58.612Z,53.75
2019-04-20T01:19:31.677Z,53.65
2019-04-20T01:20:06.051Z,53.60
2019-04-20T01:20:39.257Z,53.50
2019-04-20T01:21:17.849Z,53.58
2019-04-20T01:21:57.858Z,53.63
2019-04-20T01:22:28.367Z,54.77
2019-04-20T01:23:06.737Z,54.25
2019-04-20T01:23:42.939Z,53.60
2019-04-20T01:24:15.111Z,54.58
2019-04-20T01:24:48.173Z,52.93
2019-04-20T01:25:27.229Z,53.98
2019-04-20T01:26:02.030Z,53.20
2019-04-20T01:26:31.235Z,52.93
2019-04-20T01:27:16.803Z,54.25
2019-04-20T01:28:03.445Z,53.13
2019-04-20T01:28:35.520Z,54.45
2019-04-20T01:29:01.777Z,53.40
2019-04-20T01:29:32.391Z,53.50
2019-04-20T01:30:11.747Z,53.83
2019-04-20T01:30:43.173Z,54.48
2019-04-20T01:31:22.221Z,53.28
2019-04-20T01:32:03.636Z,54.00
2019-04-20T01:33:40.401Z,54.00
2019-04-20T01:34:08.259Z,54.05
2019-04-20T01:34:47.641Z,54.30
2019-04-20T01:35:31.055Z,54.10
2019-04-20T01:36:03.539Z,53.80
2019-04-20T01:36:40.612Z,53.80
2019-04-20T01:37:16.455Z,54.60
2019-04-20T01:37:52.226Z,55.10
2019-04-20T01:38:22.408Z,53.58
2019-04-20T01:38:56.795Z,54.50
2019-04-20T01:39:27.616Z,53.65
2019-04-20T01:39:55.485Z,54.05
2019-04-20T01:40:27.386Z,55.30
2019-04-20T01:41:01.259Z,53.87
2019-04-20T01:41:35.136Z,54.50
2019-04-20T01:42:08.668Z,54.15
2019-04-20T01:42:42.557Z,53.25
2019-04-20T01:43:16.310Z,53.70
2019-04-20T01:43:50.180Z,54.45
2019-04-20T01:44:26.125Z,54.45
2019-04-20T01:44:58.995Z,54.75
2019-04-20T01:45:37.679Z,54.50
2019-04-20T01:46:15.095Z,54.65
2019-04-20T01:46:46.686Z,54.85
2019-04-20T01:47:19.086Z,54.25
2019-04-20T01:47:54.877Z,54.75
2019-04-20T01:48:33.008Z,55.00
2019-04-20T01:49:09.155Z,54.45
2019-04-20T01:49:39.011Z,54.60
2019-04-20T01:50:16.664Z,53.92
2019-04-20T01:50:57.494Z,55.23
2019-04-20T01:51:27.168Z,55.05
2019-04-20T01:52:07.655Z,55.15
2019-04-20T01:52:48.222Z,54.45
2019-04-20T01:53:21.406Z,55.88
2019-04-20T01:54:06.331Z,54.40
2019-04-20T01:54:38.636Z,56.00
2019-04-20T01:55:33.256Z,55.20
2019-04-20T01:56:11.694Z,54.30
2019-04-20T01:56:40.344Z,54.50
2019-04-20T01:57:32.969Z,55.33
2019-04-20T01:58:28.724Z,55.15
2019-04-20T01:59:15.949Z,55.40
2019-04-20T01:59:49.332Z,54.67
2019-04-20T02:00:35.633Z,55.17
2019-04-20T02:01:36.205Z,55.00
2019-04-20T02:07:04.705Z,56.05
2019-04-20T02:07:43.826Z,54.93
2019-04-20T02:08:18.332Z,56.28
2019-04-20T02:08:52.896Z,55.15
2019-04-20T02:09:25.696Z,56.45
2019-04-20T02:10:03.062Z,55.38
2019-04-20T02:10:41.644Z,55.43
2019-04-20T02:11:09.143Z,55.85
2019-04-20T02:11:46.538Z,55.23
2019-04-20T02:12:23.651Z,54.98
2019-04-20T02:12:57.929Z,55.40
2019-04-20T02:13:38.979Z,56.23
2019-04-20T02:14:06.710Z,56.18
2019-04-20T02:14:43.701Z,55.55
2019-04-20T02:15:26.235Z,57.25
2019-04-20T02:15:55.347Z,56.30
2019-04-20T02:16:33.082Z,56.73
2019-04-20T02:17:11.722Z,55.88
2019-04-20T02:21:55.935Z,56.13
2019-04-20T02:22:34.199Z,55.78
2019-04-20T02:23:03.735Z,56.53
2019-04-20T02:23:33.593Z,56.33
2019-04-20T02:24:02.671Z,56.28
2019-04-20T02:24:34.038Z,56.28
2019-04-20T02:25:08.011Z,56.70
2019-04-20T02:25:42.342Z,56.45
2019-04-20T02:26:15.991Z,56.83
2019-04-20T02:26:50.247Z,56.73
2019-04-20T02:27:30.846Z,57.55
2019-04-20T02:28:19.028Z,57.65
2019-04-20T02:29:00.709Z,56.55
2019-04-20T02:29:32.433Z,56.58
2019-04-20T02:30:07.625Z,56.13
2019-04-20T02:30:57.585Z,56.70
2019-04-20T02:31:32.593Z,56.00
2019-04-20T02:32:26.569Z,55.52
2019-04-20T02:37:35.940Z,56.45
2019-04-20T02:38:12.249Z,56.53
2019-04-20T02:39:53.708Z,56.48
2019-04-20T02:40:50.613Z,55.52
2019-04-20T02:41:27.587Z,56.48
2019-04-20T02:42:04.674Z,55.63
2019-04-20T02:42:44.620Z,55.98
2019-04-20T02:43:27.782Z,55.78
2019-04-20T02:44:05.980Z,56.10
2019-04-20T02:44:24.061Z,56.28
2019-04-20T02:45:00.760Z,57.23
2019-04-20T02:45:57.427Z,55.67
2019-04-20T02:46:40.846Z,55.75
2019-04-20T02:47:19.500Z,56.00
2019-04-20T02:47:54.863Z,55.85
2019-04-20T02:51:18.569Z,56.28
2019-04-20T02:51:59.955Z,55.63
2019-04-20T02:52:32.287Z,55.63
2019-04-20T02:53:05.811Z,55.20
2019-04-20T02:54:20.369Z,54.85
2019-04-20T02:54:36.367Z,55.52
2019-04-20T02:55:16.968Z,55.28
2019-04-20T02:55:58.011Z,54.15
2019-04-20T02:56:32.076Z,54.90
2019-04-20T02:57:44.117Z,54.90
2019-04-20T02:58:10.787Z,55.45
2019-04-20T02:58:54.520Z,55.10
2019-04-20T02:59:47.469Z,56.02
2019-04-20T03:00:08.685Z,55.40
2019-04-20T03:01:32.514Z,54.33
2019-04-20T03:02:08.525Z,55.20
2019-04-20T03:02:38.294Z,56.28
2019-04-20T03:05:30.861Z,54.95
2019-04-20T03:06:08.585Z,55.33
2019-04-20T03:06:39.762Z,55.05
2019-04-20T03:07:14.950Z,54.93
2019-04-20T03:07:57.549Z,55.52
2019-04-20T03:08:28.750Z,54.88
2019-04-20T03:09:09.137Z,55.35
2019-04-20T03:09:44.475Z,54.93
2019-04-20T03:10:17.956Z,55.25
2019-04-20T03:11:06.490Z,55.05
2019-04-20T03:11:44.243Z,55.55
2019-04-20T03:12:08.244Z,55.33
2019-04-20T03:12:42.845Z,54.65
2019-04-20T03:13:15.647Z,54.90
2019-04-20T03:13:50.635Z,55.25
2019-04-20T03:14:21.561Z,54.93
2019-04-20T03:14:57.452Z,54.30
2019-04-20T03:15:40.518Z,55.83
2019-04-20T03:16:11.941Z,54.42
2019-04-20T03:16:45.393Z,55.38
2019-04-20T03:17:27.247Z,54.73
2019-04-20T03:17:59.654Z,55.12
2019-04-20T03:18:32.557Z,55.05
2019-04-20T03:19:03.025Z,56.13
2019-04-20T03:19:37.646Z,55.43
2019-04-20T03:20:19.926Z,55.67
2019-04-20T03:20:54.899Z,55.75
2019-04-20T03:21:34.528Z,55.75
2019-04-20T03:22:03.805Z,55.48
2019-04-20T03:23:05.183Z,55.17
2019-04-20T03:23:35.671Z,56.58
2019-04-20T03:23:59.645Z,56.37
2019-04-20T03:24:32.287Z,55.70
2019-04-20T03:25:06.182Z,55.78
2019-04-20T03:25:55.951Z,56.42
2019-04-20T03:26:32.506Z,56.23
2019-04-20T03:27:24.825Z,55.33
2019-04-20T03:28:05.353Z,56.50
2019-04-20T03:28:54.156Z,55.45
2019-04-20T03:29:46.969Z,55.63
2019-04-20T03:32:44.520Z,55.63
2019-04-20T03:35:00.622Z,56.40
2019-04-20T03:35:22.601Z,55.43
2019-04-20T03:36:08.653Z,55.98
2019-04-20T03:36:34.672Z,55.63
2019-04-20T03:37:15.219Z,55.75
2019-04-20T03:37:44.195Z,56.65
2019-04-20T03:38:17.220Z,56.23
2019-04-20T03:38:47.989Z,56.15
2019-04-20T03:39:25.922Z,55.48
2019-04-20T03:39:56.761Z,56.45
2019-04-20T03:40:36.434Z,56.02
2019-04-20T03:41:06.422Z,56.35
2019-04-20T03:41:37.718Z,55.60
2019-04-20T03:42:05.323Z,54.60
2019-04-20T03:42:39.910Z,55.63
2019-04-20T03:43:13.939Z,55.52
2019-04-20T03:43:47.714Z,55.45
2019-04-20T03:44:25.627Z,56.53
2019-04-20T03:45:00.604Z,55.35
2019-04-20T03:45:39.205Z,56.55
2019-04-20T03:46:10.625Z,55.92
2019-04-20T03:46:47.892Z,56.00
2019-04-20T03:47:26.633Z,55.95
2019-04-20T03:48:04.429Z,55.70
2019-04-20T03:48:41.521Z,56.35
2019-04-20T03:49:20.250Z,56.50
2019-04-20T03:49:59.550Z,56.20
2019-04-20T03:50:37.088Z,55.85
2019-04-20T03:51:08.963Z,56.20
2019-04-20T03:51:48.967Z,56.15
2019-04-20T03:52:32.781Z,55.67
2019-04-20T03:53:19.777Z,55.80
2019-04-20T03:54:13.769Z,56.15
2019-04-20T03:55:10.311Z,56.68
2019-04-20T03:55:49.194Z,56.25
2019-04-20T03:56:42.007Z,56.65
2019-04-20T03:57:27.605Z,55.88
2019-04-20T03:58:18.833Z,56.23
2019-04-20T03:59:03.249Z,55.92
2019-04-20T03:59:51.120Z,55.73
2019-04-20T04:00:35.493Z,56.80
2019-04-20T04:02:02.124Z,56.28
2019-04-20T04:02:49.302Z,56.37
2019-04-20T04:04:09.488Z,56.58
2019-04-20T04:05:06.246Z,56.83
2019-04-20T04:05:50.701Z,55.43
2019-04-20T04:06:26.345Z,56.50
2019-04-20T04:06:55.887Z,56.28
2019-04-20T04:07:34.587Z,56.20
2019-04-20T04:08:12.277Z,56.02
2019-04-20T04:08:41.326Z,56.10
2019-04-20T04:09:24.573Z,56.33
2019-04-20T04:10:08.464Z,56.20
2019-04-20T04:10:32.675Z,56.98
2019-04-20T04:11:16.221Z,56.77
2019-04-20T04:11:44.490Z,56.35
2019-04-20T04:13:07.158Z,55.98
2019-04-20T04:13:40.316Z,56.20
2019-04-20T04:14:13.670Z,56.13
2019-04-20T04:14:47.358Z,56.25
2019-04-20T04:15:20.925Z,57.13
2019-04-20T04:15:59.425Z,56.70
2019-04-20T04:16:37.928Z,56.33
2019-04-20T04:17:05.827Z,56.85
2019-04-20T04:17:43.417Z,56.85
2019-04-20T04:23:06.049Z,56.50
2019-04-20T04:23:38.210Z,56.73
2019-04-20T04:24:09.488Z,56.80
2019-04-20T04:24:41.006Z,57.25
2019-04-20T04:25:15.960Z,55.70
2019-04-20T04:25:59.415Z,56.13
2019-04-20T04:26:34.405Z,57.13
2019-04-20T04:27:06.970Z,56.15
2019-04-20T04:27:42.912Z,57.43
2019-04-20T04:28:23.854Z,56.75
2019-04-20T04:28:54.767Z,56.10
2019-04-20T04:29:35.628Z,55.60
2019-04-20T04:30:08.072Z,56.60
2019-04-20T04:30:36.548Z,56.53
2019-04-20T04:31:22.868Z,56.28
2019-04-20T04:32:01.094Z,56.55
2019-04-20T04:32:39.377Z,55.92
2019-04-20T04:33:37.875Z,56.42
2019-04-20T04:36:29.303Z,56.58
2019-04-20T04:37:03.470Z,57.05
2019-04-20T04:37:40.578Z,56.08
2019-04-20T04:38:12.345Z,56.58
2019-04-20T04:38:55.186Z,56.40
2019-04-20T04:39:30.709Z,55.52
2019-04-20T04:40:00.991Z,55.38
2019-04-20T04:40:44.290Z,55.90
2019-04-20T04:41:50.968Z,55.70
2019-04-20T04:42:22.606Z,55.35
2019-04-20T04:42:57.898Z,56.13
2019-04-20T04:43:35.645Z,55.80
2019-04-20T04:44:04.570Z,56.45
2019-04-20T04:44:34.319Z,55.30
2019-04-20T04:45:01.585Z,55.35
2019-04-20T04:45:32.256Z,56.80
2019-04-20T04:46:06.283Z,55.33
2019-04-20T04:46:42.670Z,55.33
2019-04-20T04:47:16.606Z,56.48
2019-04-20T04:47:51.388Z,55.40
2019-04-20T04:48:29.903Z,55.88
2019-04-20T04:49:08.430Z,56.75
2019-04-20T04:49:39.613Z,55.25
2019-04-20T04:50:16.389Z,55.75
2019-04-20T04:50:52.778Z,55.17
2019-04-20T04:51:24.706Z,55.75
2019-04-20T04:52:01.069Z,56.35
2019-04-20T04:52:44.633Z,55.45
2019-04-20T04:53:11.956Z,55.65
2019-04-20T04:53:51.079Z,55.70
2019-04-20T04:54:25.923Z,54.85
2019-04-20T04:54:56.619Z,56.20
2019-04-20T04:55:36.282Z,54.93
2019-04-20T04:56:05.794Z,54.60
2019-04-20T04:56:35.511Z,56.05
2019-04-20T04:57:09.502Z,55.85
2019-04-20T04:57:43.291Z,56.55
2019-04-20T04:58:17.319Z,54.18
2019-04-20T04:58:51.648Z,55.45
2019-04-20T04:59:25.720Z,54.23
2019-04-20T04:59:59.423Z,56.00
2019-04-20T05:00:34.801Z,56.60
2019-04-20T05:01:15.963Z,55.30
2019-04-20T05:01:47.792Z,55.48
2019-04-20T05:02:22.524Z,55.15
2019-04-20T05:03:01.119Z,55.43
2019-04-20T05:05:39.264Z,55.92
2019-04-20T05:06:18.617Z,55.63
2019-04-20T05:06:51.512Z,56.13
2019-04-20T05:07:38.783Z,56.53
2019-04-20T05:08:10.159Z,56.15
2019-04-20T05:08:41.693Z,55.38
2019-04-20T05:09:12.530Z,55.23
2019-04-20T05:09:44.524Z,55.20
2019-04-20T05:10:19.404Z,54.67
2019-04-20T05:10:54.146Z,55.43
2019-04-20T05:11:27.939Z,54.80
2019-04-20T05:12:07.138Z,55.12
2019-04-20T05:12:38.514Z,55.12
2019-04-20T05:13:11.355Z,54.85
2019-04-20T05:13:54.185Z,53.92
2019-04-20T05:14:27.097Z,54.55
2019-04-20T05:15:05.226Z,54.98
2019-04-20T05:15:46.106Z,54.58
2019-04-20T05:16:19.247Z,53.25
2019-04-20T05:16:55.196Z,53.35
2019-04-20T05:17:40.848Z,54.15
2019-04-20T05:18:12.920Z,54.18
2019-04-20T05:20:28.119Z,53.38
2019-04-20T05:21:17.384Z,54.55
2019-04-20T05:22:01.360Z,54.50
2019-04-20T05:22:32.335Z,54.05
2019-04-20T05:23:20.718Z,53.80
2019-04-20T05:24:04.778Z,54.15
2019-04-20T05:24:48.079Z,53.45
2019-04-20T05:25:52.310Z,53.00
2019-04-20T05:26:42.811Z,54.60
2019-04-20T05:27:40.089Z,53.35
2019-04-20T05:28:13.308Z,53.42
2019-04-20T05:28:46.259Z,52.93
2019-04-20T05:29:16.242Z,53.40
2019-04-20T05:29:44.696Z,53.08
2019-04-20T05:30:18.083Z,52.83
2019-04-20T05:30:57.635Z,53.10
2019-04-20T05:31:36.736Z,52.38
2019-04-20T05:32:07.944Z,51.95
2019-04-20T05:32:48.256Z,51.90
2019-04-20T05:33:21.433Z,51.68
2019-04-20T05:35:25.501Z,52.50
2019-04-20T05:35:57.981Z,51.35
2019-04-20T05:36:28.108Z,51.15
2019-04-20T05:37:06.022Z,51.53
2019-04-20T05:37:43.205Z,50.43
2019-04-20T05:38:28.360Z,50.45
2019-04-20T05:39:10.235Z,50.70
2019-04-20T05:39:26.836Z,51.88
2019-04-20T05:40:05.898Z,51.02
2019-04-20T05:40:44.427Z,50.23
2019-04-20T05:41:11.823Z,51.18
2019-04-20T05:41:44.055Z,51.20
2019-04-20T05:42:24.673Z,49.80
2019-04-20T05:43:03.147Z,50.70
2019-04-20T05:43:45.715Z,50.65
2019-04-20T05:44:20.986Z,50.60
2019-04-20T05:45:01.754Z,48.60
2019-04-20T05:45:32.330Z,49.48
2019-04-20T05:46:19.747Z,50.28
2019-04-20T05:46:48.129Z,49.45
2019-04-20T05:47:23.939Z,50.00
2019-04-20T05:47:55.421Z,49.60
2019-04-20T05:48:33.937Z,48.90
2019-04-20T05:49:40.390Z,48.87
2019-04-20T05:50:18.562Z,49.10
2019-04-20T05:50:54.916Z,48.55
2019-04-20T05:52:17.449Z,49.30
2019-04-20T05:53:03.224Z,50.05
2019-04-20T05:53:20.288Z,48.80
2019-04-20T05:53:50.481Z,50.03
2019-04-20T05:54:31.096Z,49.67
2019-04-20T05:55:07.423Z,47.78
2019-04-20T05:55:35.955Z,48.33
2019-04-20T05:56:09.185Z,48.00
2019-04-20T05:56:45.697Z,47.80
2019-04-20T05:57:25.255Z,48.38
2019-04-20T05:58:02.123Z,48.45
2019-04-20T05:58:32.721Z,48.85
2019-04-20T05:59:07.541Z,47.78
2019-04-20T05:59:47.066Z,48.83
2019-04-20T06:00:19.174Z,48.05
2019-04-20T06:00:55.065Z,48.45
2019-04-20T06:01:25.849Z,48.15
2019-04-20T06:02:07.533Z,48.15
2019-04-20T06:02:36.401Z,48.52
2019-04-20T06:03:11.629Z,48.42
2019-04-20T06:03:42.337Z,48.25
2019-04-20T06:04:30.095Z,48.13
2019-04-20T06:05:39.004Z,48.60
2019-04-20T06:06:09.311Z,48.87
2019-04-20T06:06:44.711Z,48.13
2019-04-20T06:07:21.494Z,48.58
2019-04-20T06:07:53.496Z,47.83
2019-04-20T06:08:40.297Z,47.17
2019-04-20T06:09:08.773Z,48.35
2019-04-20T06:09:39.650Z,48.13
2019-04-20T06:10:11.443Z,48.50
2019-04-20T06:10:49.448Z,48.15
2019-04-20T06:11:23.793Z,48.40
2019-04-20T06:12:08.949Z,47.93
2019-04-20T06:13:07.499Z,47.53
2019-04-20T06:14:05.050Z,46.85
2019-04-20T06:14:53.703Z,47.75
2019-04-20T06:15:53.873Z,47.73
2019-04-20T06:16:31.314Z,48.15
2019-04-20T06:17:15.904Z,46.83
2019-04-20T06:18:02.544Z,47.17
2019-04-20T06:18:42.518Z,48.05
2019-04-20T06:23:19.600Z,47.45
2019-04-20T06:24:07.001Z,47.70
2019-04-20T06:24:45.173Z,46.75
2019-04-20T06:25:31.631Z,47.08
2019-04-20T06:26:04.060Z,47.50
2019-04-20T06:26:44.251Z,46.98
2019-04-20T06:27:21.521Z,47.08
2019-04-20T06:27:45.006Z,47.10
2019-04-20T06:28:14.881Z,46.58
2019-04-20T06:28:46.505Z,47.33
2019-04-20T06:29:23.686Z,47.60
2019-04-20T06:30:00.728Z,46.58
2019-04-20T06:30:30.896Z,46.05
2019-04-20T06:31:19.039Z,46.73
2019-04-20T06:31:45.906Z,46.73
2019-04-20T06:32:27.143Z,46.98
2019-04-20T06:34:07.547Z,46.53
2019-04-20T06:37:38.986Z,46.95
2019-04-20T06:38:32.090Z,46.00
2019-04-20T06:39:20.002Z,46.37
2019-04-20T06:39:54.400Z,45.78
2019-04-20T06:40:45.793Z,47.33
2019-04-20T06:42:01.997Z,46.23
2019-04-20T06:42:15.243Z,46.48
2019-04-20T06:42:52.002Z,46.88
2019-04-20T06:43:25.636Z,46.88
2019-04-20T06:44:08.218Z,45.50
2019-04-20T06:45:09.850Z,44.80
2019-04-20T06:45:51.281Z,46.18
2019-04-20T06:46:24.031Z,44.55
2019-04-20T06:47:02.790Z,45.05
2019-04-20T06:47:31.074Z,45.20
2019-04-20T06:48:05.865Z,45.15
2019-04-20T06:48:47.090Z,44.65
2019-04-20T06:51:47.327Z,44.85
2019-04-20T06:52:27.516Z,45.17
2019-04-20T06:53:32.108Z,44.30
2019-04-20T06:54:03.195Z,44.53
2019-04-20T06:55:03.375Z,44.60
2019-04-20T06:55:42.803Z,45.45
2019-04-20T06:56:35.840Z,44.27
2019-04-20T06:57:10.219Z,44.40
2019-04-20T06:57:46.387Z,44.60
2019-04-20T06:58:34.866Z,44.10
2019-04-20T06:58:58.944Z,44.65
2019-04-20T06:59:33.474Z,43.23
2019-04-20T07:00:07.444Z,45.28
2019-04-20T07:00:42.225Z,44.30
2019-04-20T07:01:13.685Z,43.65
2019-04-20T07:01:56.405Z,44.42
2019-04-20T07:02:29.481Z,43.98
2019-04-20T07:03:01.980Z,44.53
2019-04-20T07:04:36.088Z,44.60
2019-04-20T07:07:02.359Z,44.30
2019-04-20T07:07:29.785Z,44.48
2019-04-20T07:08:28.953Z,44.05
2019-04-20T07:09:21.703Z,44.15
2019-04-20T07:10:03.600Z,44.38
2019-04-20T07:10:34.687Z,44.83
2019-04-20T07:11:04.280Z,44.50
2019-04-20T07:11:37.422Z,44.30
2019-04-20T07:12:11.405Z,44.33
2019-04-20T07:12:45.398Z,44.53
2019-04-20T07:13:18.369Z,44.55
2019-04-20T07:13:49.315Z,43.78
2019-04-20T07:14:28.929Z,43.80
2019-04-20T07:14:58.842Z,44.33
2019-04-20T07:15:41.537Z,45.08
2019-04-20T07:16:37.446Z,44.90
2019-04-20T07:17:39.269Z,45.92
2019-04-20T07:18:02.703Z,44.67
2019-04-20T07:18:35.773Z,45.20
2019-04-20T07:19:15.391Z,44.73
2019-04-20T07:19:49.854Z,43.70
2019-04-20T07:21:09.552Z,44.65
2019-04-20T07:22:02.327Z,45.23
2019-04-20T07:22:33.706Z,45.10
2019-04-20T07:23:18.930Z,45.38
2019-04-20T07:23:40.768Z,44.27
2019-04-20T07:24:17.124Z,43.73
2019-04-20T07:25:34.496Z,45.05
2019-04-20T07:26:01.853Z,44.53
2019-04-20T07:26:37.490Z,45.08
2019-04-20T07:27:14.928Z,44.13
2019-04-20T07:27:48.519Z,44.50
2019-04-20T07:28:29.818Z,44.30
2019-04-20T07:29:00.048Z,43.95
2019-04-20T07:29:36.778Z,44.73
2019-04-20T07:30:07.378Z,44.90
2019-04-20T07:30:41.267Z,43.98
2019-04-20T07:31:14.104Z,44.73
2019-04-20T07:31:48.737Z,44.77
2019-04-20T07:32:17.450Z,44.70
2019-04-20T07:33:03.911Z,45.03
2019-04-20T07:33:41.189Z,44.75
2019-04-20T07:34:18.358Z,44.67
2019-04-20T07:39:14.582Z,43.92
2019-04-20T07:39:48.222Z,44.90
2019-04-20T07:40:24.481Z,44.83
2019-04-20T07:40:56.053Z,44.25
2019-04-20T07:41:45.104Z,44.65
2019-04-20T07:42:08.480Z,44.50
2019-04-20T07:42:45.089Z,45.30
2019-04-20T07:43:08.134Z,45.15
2019-04-20T07:44:01.176Z,44.53
2019-04-20T07:44:36.079Z,44.75
2019-04-20T07:45:18.308Z,45.33
2019-04-20T07:45:51.725Z,44.73
2019-04-20T07:46:20.834Z,44.42
2019-04-20T07:47:11.195Z,45.03
2019-04-20T07:47:29.907Z,44.67
2019-04-20T07:48:01.379Z,44.58
2019-04-20T07:48:31.180Z,45.23
2019-04-20T07:49:07.621Z,45.05
2019-04-20T07:49:42.099Z,44.98
2019-04-20T07:53:04.418Z,45.10
2019-04-20T07:53:36.669Z,44.40
2019-04-20T07:54:24.491Z,44.25
2019-04-20T07:55:13.622Z,45.65
2019-04-20T07:55:40.445Z,44.95
2019-04-20T07:56:09.192Z,45.38
2019-04-20T07:56:42.256Z,45.45
2019-04-20T07:57:14.661Z,45.15
2019-04-20T07:57:48.895Z,44.70
2019-04-20T07:58:18.234Z,44.88
2019-04-20T07:58:51.166Z,44.70
2019-04-20T07:59:27.511Z,44.80
2019-04-20T08:00:17.476Z,43.98
2019-04-20T08:01:05.978Z,44.42
2019-04-20T08:01:36.160Z,45.48
2019-04-20T08:02:42.517Z,45.30
2019-04-20T08:03:28.361Z,44.48
2019-04-20T08:04:10.273Z,44.03
2019-04-20T08:04:47.085Z,45.33
2019-04-20T08:07:09.496Z,44.00
2019-04-20T08:07:53.887Z,44.90
2019-04-20T08:08:32.706Z,45.10
2019-04-20T08:09:07.178Z,44.88
2019-04-20T08:09:34.991Z,44.63
2019-04-20T08:10:06.468Z,45.00
2019-04-20T08:10:54.452Z,44.23
2019-04-20T08:11:26.735Z,44.67
2019-04-20T08:12:22.490Z,44.90
2019-04-20T08:12:55.917Z,44.53
2019-04-20T08:13:32.942Z,45.25
2019-04-20T08:14:07.125Z,44.73
2019-04-20T08:14:39.963Z,45.45
2019-04-20T08:15:11.110Z,45.43
2019-04-20T08:15:49.238Z,45.55
2019-04-20T08:16:27.648Z,45.85
2019-04-20T08:17:09.136Z,44.98
2019-04-20T08:17:38.571Z,44.67
2019-04-20T08:18:08.454Z,44.90
2019-04-20T08:18:46.958Z,45.33
2019-04-20T08:19:16.363Z,44.00
2019-04-20T08:19:48.466Z,44.60
2019-04-20T08:20:29.899Z,45.12
2019-04-20T08:21:03.864Z,44.80
2019-04-20T08:21:39.125Z,44.98
2019-04-20T08:22:15.531Z,44.93
2019-04-20T08:22:47.967Z,43.75
2019-04-20T08:23:23.120Z,44.77
2019-04-20T08:23:57.713Z,44.98
2019-04-20T08:24:27.929Z,45.55
2019-04-20T08:25:01.170Z,45.15
2019-04-20T08:25:35.082Z,45.25
2019-04-20T08:26:06.562Z,45.40
2019-04-20T08:26:34.463Z,44.60
2019-04-20T08:27:13.162Z,44.15
2019-04-20T08:28:01.484Z,44.77
2019-04-20T08:28:46.514Z,45.52
2019-04-20T08:29:38.166Z,45.03
2019-04-20T08:30:26.354Z,45.23
2019-04-20T08:31:21.742Z,45.35
2019-04-20T08:32:17.787Z,44.50
2019-04-20T08:33:00.391Z,45.58
2019-04-20T08:33:47.175Z,43.85
2019-04-20T08:34:39.707Z,45.28
2019-04-20T08:34:55.850Z,45.15
2019-04-20T08:35:32.085Z,45.63
2019-04-20T08:36:04.362Z,44.63
2019-04-20T08:36:40.525Z,45.58
2019-04-20T08:37:15.868Z,45.30
2019-04-20T08:38:05.935Z,45.33
2019-04-20T08:38:51.615Z,45.48
2019-04-20T08:39:16.481Z,45.65
2019-04-20T08:39:45.440Z,45.05
2019-04-20T08:40:16.264Z,45.10
2019-04-20T08:40:43.497Z,45.30
2019-04-20T08:41:15.556Z,45.20
2019-04-20T08:41:57.576Z,44.85
2019-04-20T08:42:30.961Z,45.23
2019-04-20T08:43:22.867Z,44.50
2019-04-20T08:43:47.167Z,44.65
2019-04-20T08:44:36.926Z,45.35
2019-04-20T08:45:12.785Z,45.80
2019-04-20T08:45:36.184Z,45.43
2019-04-20T08:46:08.947Z,44.88
2019-04-20T08:46:40.353Z,45.50
2019-04-20T08:47:22.091Z,45.05
2019-04-20T08:47:56.984Z,45.60
2019-04-20T08:48:31.388Z,45.08
2019-04-20T08:49:03.037Z,45.03
2019-04-20T08:49:41.346Z,45.28
2019-04-20T08:50:26.914Z,45.23
2019-04-20T08:50:51.780Z,45.40
2019-04-20T08:51:26.123Z,45.78
2019-04-20T08:52:20.996Z,45.17
2019-04-20T08:52:58.664Z,44.58
2019-04-20T08:53:47.139Z,46.15
2019-04-20T08:54:16.515Z,45.33
2019-04-20T08:54:58.246Z,45.23
2019-04-20T08:55:28.190Z,45.15
2019-04-20T08:55:59.114Z,44.95
2019-04-20T08:56:31.707Z,45.35
2019-04-20T08:57:00.448Z,44.90
2019-04-20T08:57:31.527Z,45.10
2019-04-20T08:58:04.775Z,45.43
2019-04-20T08:58:39.042Z,45.15
2019-04-20T08:59:13.649Z,45.65
2019-04-20T08:59:48.363Z,45.23
2019-04-20T09:00:29.662Z,45.12
2019-04-20T09:01:01.251Z,44.80
2019-04-20T09:01:35.830Z,45.65
2019-04-20T09:02:11.986Z,44.95
2019-04-20T09:02:51.628Z,45.40
2019-04-20T09:03:25.441Z,45.52
2019-04-20T09:04:04.709Z,45.67
2019-04-20T09:04:40.724Z,44.93
2019-04-20T09:09:34.821Z,45.35
2019-04-20T09:10:00.346Z,44.70
2019-04-20T09:10:39.446Z,45.05
2019-04-20T09:11:10.288Z,45.75
2019-04-20T09:11:49.503Z,45.73
2019-04-20T09:12:20.945Z,45.70
2019-04-20T09:12:54.702Z,45.52
2019-04-20T09:13:24.432Z,44.25
2019-04-20T09:13:53.633Z,44.67
2019-04-20T09:14:23.775Z,44.30
2019-04-20T09:14:59.367Z,45.05
2019-04-20T09:15:32.516Z,45.15
2019-04-20T09:16:06.688Z,44.53
2019-04-20T09:16:47.905Z,45.20
2019-04-20T09:17:32.620Z,45.08
2019-04-20T09:18:13.560Z,45.10
2019-04-20T09:18:47.754Z,44.75
2019-04-20T09:19:27.135Z,44.90